sensor_id;sensor_type;location;lat;lon;timestamp;temperature;humidity
11647;DHT22;5880;52.342;9.662;2023-01-01T00:01:29;19.00;51.40
11647;DHT22;5880;52.342;9.662;2023-01-01T00:03:57;19.00;51.60
11647;DHT22;5880;52.342;9.662;2023-01-01T00:06:23;19.00;51.50
11647;DHT22;5880;52.342;9.662;2023-01-01T00:08:50;19.00;51.60
11647;DHT22;5880;52.342;9.662;2023-01-01T00:11:39;19.00;51.50
11647;DHT22;5880;52.342;9.662;2023-01-01T00:14:04;19.00;51.40
11647;DHT22;5880;52.342;9.662;2023-01-01T00:16:30;19.00;51.20
11647;DHT22;5880;52.342;9.662;2023-01-01T00:18:56;19.00;51.10
11647;DHT22;5880;52.342;9.662;2023-01-01T00:21:21;19.00;51.40
11647;DHT22;5880;52.342;9.662;2023-01-01T00:23:47;19.00;51.40
11647;DHT22;5880;52.342;9.662;2023-01-01T00:26:15;19.00;51.20
11647;DHT22;5880;52.342;9.662;2023-01-01T00:28:42;19.00;50.80
11647;DHT22;5880;52.342;9.662;2023-01-01T00:31:10;19.00;50.90
11647;DHT22;5880;52.342;9.662;2023-01-01T00:33:38;19.00;50.60
11647;DHT22;5880;52.342;9.662;2023-01-01T00:36:11;19.00;50.70
11647;DHT22;5880;52.342;9.662;2023-01-01T00:38:39;19.00;50.40
11647;DHT22;5880;52.342;9.662;2023-01-01T00:41:06;19.00;50.80
11647;DHT22;5880;52.342;9.662;2023-01-01T00:43:33;19.00;50.50
11647;DHT22;5880;52.342;9.662;2023-01-01T00:45:59;19.10;50.60
11647;DHT22;5880;52.342;9.662;2023-01-01T00:48:24;19.10;50.50
11647;DHT22;5880;52.342;9.662;2023-01-01T00:50:51;19.10;50.30
11647;DHT22;5880;52.342;9.662;2023-01-01T00:53:17;19.10;50.50
11647;DHT22;5880;52.342;9.662;2023-01-01T00:55:44;19.10;50.40
11647;DHT22;5880;52.342;9.662;2023-01-01T00:58:12;19.10;50.60
11647;DHT22;5880;52.342;9.662;2023-01-01T01:00:38;19.20;50.50
11647;DHT22;5880;52.342;9.662;2023-01-01T01:03:04;19.10;50.40
11647;DHT22;5880;52.342;9.662;2023-01-01T01:05:31;19.10;50.90
11647;DHT22;5880;52.342;9.662;2023-01-01T01:07:58;19.10;50.10
11647;DHT22;5880;52.342;9.662;2023-01-01T01:10:24;19.20;50.10
11647;DHT22;5880;52.342;9.662;2023-01-01T01:12:53;19.20;50.10
11647;DHT22;5880;52.342;9.662;2023-01-01T01:15:19;19.20;49.40
11647;DHT22;5880;52.342;9.662;2023-01-01T01:17:45;19.20;50.00
11647;DHT22;5880;52.342;9.662;2023-01-01T01:20:11;19.20;49.80
11647;DHT22;5880;52.342;9.662;2023-01-01T01:22:37;19.20;49.60
11647;DHT22;5880;52.342;9.662;2023-01-01T01:25:05;19.20;49.90
11647;DHT22;5880;52.342;9.662;2023-01-01T01:27:31;19.20;49.90
11647;DHT22;5880;52.342;9.662;2023-01-01T01:29:57;19.10;49.80
11647;DHT22;5880;52.342;9.662;2023-01-01T01:32:23;19.20;49.90
11647;DHT22;5880;52.342;9.662;2023-01-01T01:34:48;19.20;49.60
11647;DHT22;5880;52.342;9.662;2023-01-01T01:37:14;19.20;49.70
11647;DHT22;5880;52.342;9.662;2023-01-01T01:39:40;19.20;49.50
11647;DHT22;5880;52.342;9.662;2023-01-01T01:42:05;19.20;49.50
11647;DHT22;5880;52.342;9.662;2023-01-01T01:50:20;19.10;48.60
11647;DHT22;5880;52.342;9.662;2023-01-01T01:53:16;19.10;48.60
11647;DHT22;5880;52.342;9.662;2023-01-01T01:55:52;19.10;48.20
11647;DHT22;5880;52.342;9.662;2023-01-01T01:58:22;19.10;49.20
11647;DHT22;5880;52.342;9.662;2023-01-01T02:00:50;19.00;49.30
11647;DHT22;5880;52.342;9.662;2023-01-01T02:03:22;19.00;49.40
11647;DHT22;5880;52.342;9.662;2023-01-01T02:06:13;19.00;49.20
11647;DHT22;5880;52.342;9.662;2023-01-01T02:08:40;19.00;49.40
11647;DHT22;5880;52.342;9.662;2023-01-01T02:11:05;18.90;49.30
11647;DHT22;5880;52.342;9.662;2023-01-01T02:13:31;18.90;49.40
11647;DHT22;5880;52.342;9.662;2023-01-01T02:16:11;18.90;49.30
11647;DHT22;5880;52.342;9.662;2023-01-01T02:24:55;18.90;48.40
11647;DHT22;5880;52.342;9.662;2023-01-01T02:30:38;18.90;48.90
11647;DHT22;5880;52.342;9.662;2023-01-01T02:33:12;18.90;49.00
11647;DHT22;5880;52.342;9.662;2023-01-01T02:35:46;18.90;48.70
11647;DHT22;5880;52.342;9.662;2023-01-01T02:38:29;18.90;48.90
11647;DHT22;5880;52.342;9.662;2023-01-01T02:41:35;18.90;47.50
11647;DHT22;5880;52.342;9.662;2023-01-01T02:43:55;18.90;48.20
11647;DHT22;5880;52.342;9.662;2023-01-01T02:46:21;18.90;48.50
11647;DHT22;5880;52.342;9.662;2023-01-01T02:48:51;18.90;48.00
11647;DHT22;5880;52.342;9.662;2023-01-01T02:54:42;18.90;46.90
11647;DHT22;5880;52.342;9.662;2023-01-01T02:57:30;18.90;47.40
11647;DHT22;5880;52.342;9.662;2023-01-01T03:00:04;18.90;47.00
11647;DHT22;5880;52.342;9.662;2023-01-01T03:02:53;18.90;47.40
11647;DHT22;5880;52.342;9.662;2023-01-01T03:06:08;18.90;47.30
11647;DHT22;5880;52.342;9.662;2023-01-01T03:09:22;18.90;45.80
11647;DHT22;5880;52.342;9.662;2023-01-01T03:12:17;18.90;46.80
11647;DHT22;5880;52.342;9.662;2023-01-01T03:18:00;18.90;46.70
11647;DHT22;5880;52.342;9.662;2023-01-01T03:20:32;18.90;47.20
11647;DHT22;5880;52.342;9.662;2023-01-01T03:23:07;19.00;46.40
11647;DHT22;5880;52.342;9.662;2023-01-01T03:25:50;19.00;46.20
11647;DHT22;5880;52.342;9.662;2023-01-01T03:28:43;19.00;46.40
11647;DHT22;5880;52.342;9.662;2023-01-01T03:31:18;19.00;45.70
11647;DHT22;5880;52.342;9.662;2023-01-01T03:33:50;19.00;46.20
11647;DHT22;5880;52.342;9.662;2023-01-01T03:36:23;19.00;46.40
11647;DHT22;5880;52.342;9.662;2023-01-01T03:38:58;19.40;45.70
11647;DHT22;5880;52.342;9.662;2023-01-01T03:41:42;19.00;45.70
11647;DHT22;5880;52.342;9.662;2023-01-01T03:46:45;19.00;45.30
11647;DHT22;5880;52.342;9.662;2023-01-01T03:49:12;19.00;45.90
11647;DHT22;5880;52.342;9.662;2023-01-01T03:54:44;18.90;45.40
11647;DHT22;5880;52.342;9.662;2023-01-01T03:57:34;19.00;44.50
11647;DHT22;5880;52.342;9.662;2023-01-01T04:00:17;19.00;44.50
11647;DHT22;5880;52.342;9.662;2023-01-01T04:05:18;19.00;44.50
11647;DHT22;5880;52.342;9.662;2023-01-01T04:07:45;19.00;44.50
11647;DHT22;5880;52.342;9.662;2023-01-01T04:10:12;19.00;44.60
11647;DHT22;5880;52.342;9.662;2023-01-01T04:12:49;19.00;44.90
11647;DHT22;5880;52.342;9.662;2023-01-01T04:15:21;19.00;44.40
11647;DHT22;5880;52.342;9.662;2023-01-01T04:17:50;19.00;44.20
11647;DHT22;5880;52.342;9.662;2023-01-01T04:20:16;18.90;44.60
11647;DHT22;5880;52.342;9.662;2023-01-01T04:22:43;18.90;44.20
11647;DHT22;5880;52.342;9.662;2023-01-01T04:25:10;18.90;44.40
11647;DHT22;5880;52.342;9.662;2023-01-01T04:27:37;18.90;44.00
11647;DHT22;5880;52.342;9.662;2023-01-01T04:30:08;18.90;44.40
11647;DHT22;5880;52.342;9.662;2023-01-01T04:32:35;18.90;44.40
11647;DHT22;5880;52.342;9.662;2023-01-01T04:35:00;18.80;44.00
11647;DHT22;5880;52.342;9.662;2023-01-01T04:37:26;18.90;44.50
11647;DHT22;5880;52.342;9.662;2023-01-01T04:39:52;18.80;44.20
11647;DHT22;5880;52.342;9.662;2023-01-01T04:42:18;18.80;44.30
11647;DHT22;5880;52.342;9.662;2023-01-01T04:44:43;18.80;44.10
11647;DHT22;5880;52.342;9.662;2023-01-01T04:47:09;18.70;44.30
11647;DHT22;5880;52.342;9.662;2023-01-01T04:49:35;18.80;44.30
11647;DHT22;5880;52.342;9.662;2023-01-01T04:52:01;18.70;44.40
11647;DHT22;5880;52.342;9.662;2023-01-01T04:54:27;18.70;44.30
11647;DHT22;5880;52.342;9.662;2023-01-01T04:56:53;18.60;44.20
11647;DHT22;5880;52.342;9.662;2023-01-01T04:59:18;18.60;44.20
11647;DHT22;5880;52.342;9.662;2023-01-01T05:01:44;18.60;44.30
11647;DHT22;5880;52.342;9.662;2023-01-01T05:04:12;18.60;44.40
11647;DHT22;5880;52.342;9.662;2023-01-01T05:06:39;18.60;43.90
11647;DHT22;5880;52.342;9.662;2023-01-01T05:09:04;18.60;44.40
11647;DHT22;5880;52.342;9.662;2023-01-01T05:11:30;18.50;44.40
11647;DHT22;5880;52.342;9.662;2023-01-01T05:14:00;18.50;44.40
11647;DHT22;5880;52.342;9.662;2023-01-01T05:16:29;18.50;44.20
11647;DHT22;5880;52.342;9.662;2023-01-01T05:18:56;18.50;44.30
11647;DHT22;5880;52.342;9.662;2023-01-01T05:21:24;18.50;44.50
11647;DHT22;5880;52.342;9.662;2023-01-01T05:23:54;18.50;43.70
11647;DHT22;5880;52.342;9.662;2023-01-01T05:26:23;18.50;44.20
11647;DHT22;5880;52.342;9.662;2023-01-01T05:28:51;18.50;44.20
11647;DHT22;5880;52.342;9.662;2023-01-01T05:31:19;18.40;44.40
11647;DHT22;5880;52.342;9.662;2023-01-01T05:33:46;18.40;44.00
11647;DHT22;5880;52.342;9.662;2023-01-01T05:36:21;18.40;44.30
11647;DHT22;5880;52.342;9.662;2023-01-01T05:38:49;18.40;43.80
11647;DHT22;5880;52.342;9.662;2023-01-01T05:41:17;18.40;44.20
11647;DHT22;5880;52.342;9.662;2023-01-01T05:43:44;18.40;44.20
11647;DHT22;5880;52.342;9.662;2023-01-01T05:46:16;18.40;44.10
11647;DHT22;5880;52.342;9.662;2023-01-01T05:48:44;18.40;44.30
11647;DHT22;5880;52.342;9.662;2023-01-01T05:51:12;18.40;44.50
11647;DHT22;5880;52.342;9.662;2023-01-01T05:53:44;18.40;44.30
11647;DHT22;5880;52.342;9.662;2023-01-01T05:56:10;18.30;44.40
11647;DHT22;5880;52.342;9.662;2023-01-01T05:58:38;18.30;44.50
11647;DHT22;5880;52.342;9.662;2023-01-01T06:01:05;18.30;44.30
11647;DHT22;5880;52.342;9.662;2023-01-01T06:03:37;18.30;44.30
11647;DHT22;5880;52.342;9.662;2023-01-01T06:06:08;18.30;44.30
11647;DHT22;5880;52.342;9.662;2023-01-01T06:08:36;18.30;44.20
11647;DHT22;5880;52.342;9.662;2023-01-01T06:11:04;18.30;44.40
11647;DHT22;5880;52.342;9.662;2023-01-01T06:13:32;18.30;44.40
11647;DHT22;5880;52.342;9.662;2023-01-01T06:16:00;18.30;44.30
11647;DHT22;5880;52.342;9.662;2023-01-01T06:18:29;18.30;44.20
11647;DHT22;5880;52.342;9.662;2023-01-01T06:21:03;18.30;44.10
11647;DHT22;5880;52.342;9.662;2023-01-01T06:23:34;18.30;43.90
11647;DHT22;5880;52.342;9.662;2023-01-01T06:26:13;18.20;44.30
11647;DHT22;5880;52.342;9.662;2023-01-01T06:28:41;18.20;43.90
11647;DHT22;5880;52.342;9.662;2023-01-01T06:31:10;18.70;44.50
11647;DHT22;5880;52.342;9.662;2023-01-01T06:33:37;18.20;44.10
11647;DHT22;5880;52.342;9.662;2023-01-01T06:36:05;18.20;44.30
11647;DHT22;5880;52.342;9.662;2023-01-01T06:38:35;18.20;44.20
11647;DHT22;5880;52.342;9.662;2023-01-01T06:41:05;18.20;44.20
11647;DHT22;5880;52.342;9.662;2023-01-01T06:43:34;18.10;44.20
11647;DHT22;5880;52.342;9.662;2023-01-01T06:46:02;18.10;44.30
11647;DHT22;5880;52.342;9.662;2023-01-01T06:48:34;18.10;44.30
11647;DHT22;5880;52.342;9.662;2023-01-01T06:51:21;18.10;44.20
11647;DHT22;5880;52.342;9.662;2023-01-01T06:53:52;18.10;44.00
11647;DHT22;5880;52.342;9.662;2023-01-01T06:56:18;18.10;44.30
11647;DHT22;5880;52.342;9.662;2023-01-01T06:58:45;18.10;44.50
11647;DHT22;5880;52.342;9.662;2023-01-01T07:01:18;18.10;44.40
11647;DHT22;5880;52.342;9.662;2023-01-01T07:03:51;18.00;43.80
11647;DHT22;5880;52.342;9.662;2023-01-01T07:06:22;18.00;44.00
11647;DHT22;5880;52.342;9.662;2023-01-01T07:08:49;18.00;45.10
11647;DHT22;5880;52.342;9.662;2023-01-01T07:11:15;18.00;44.10
11647;DHT22;5880;52.342;9.662;2023-01-01T07:13:41;18.00;44.10
11647;DHT22;5880;52.342;9.662;2023-01-01T07:16:07;17.90;44.20
11647;DHT22;5880;52.342;9.662;2023-01-01T07:18:33;17.90;44.30
11647;DHT22;5880;52.342;9.662;2023-01-01T07:21:01;17.90;44.20
11647;DHT22;5880;52.342;9.662;2023-01-01T07:23:30;17.90;44.10
11647;DHT22;5880;52.342;9.662;2023-01-01T07:25:58;17.90;44.30
11647;DHT22;5880;52.342;9.662;2023-01-01T07:28:24;17.90;44.40
11647;DHT22;5880;52.342;9.662;2023-01-01T07:30:51;17.90;44.40
11647;DHT22;5880;52.342;9.662;2023-01-01T07:33:20;17.80;44.40
11647;DHT22;5880;52.342;9.662;2023-01-01T07:35:48;17.80;44.20
11647;DHT22;5880;52.342;9.662;2023-01-01T07:38:14;17.80;44.60
11647;DHT22;5880;52.342;9.662;2023-01-01T07:40:40;17.80;44.60
11647;DHT22;5880;52.342;9.662;2023-01-01T07:43:07;17.80;44.60
11647;DHT22;5880;52.342;9.662;2023-01-01T07:45:33;17.80;44.70
11647;DHT22;5880;52.342;9.662;2023-01-01T07:48:00;17.80;44.70
11647;DHT22;5880;52.342;9.662;2023-01-01T07:50:29;17.80;44.70
11647;DHT22;5880;52.342;9.662;2023-01-01T07:52:56;17.80;44.60
11647;DHT22;5880;52.342;9.662;2023-01-01T07:55:23;17.90;44.80
11647;DHT22;5880;52.342;9.662;2023-01-01T07:57:49;17.80;44.70
11647;DHT22;5880;52.342;9.662;2023-01-01T08:00:17;17.90;44.90
11647;DHT22;5880;52.342;9.662;2023-01-01T08:02:45;17.90;45.00
11647;DHT22;5880;52.342;9.662;2023-01-01T08:05:10;17.90;45.00
11647;DHT22;5880;52.342;9.662;2023-01-01T08:07:36;17.90;44.80
11647;DHT22;5880;52.342;9.662;2023-01-01T08:10:04;17.90;45.00
11647;DHT22;5880;52.342;9.662;2023-01-01T08:12:31;18.00;44.80
11647;DHT22;5880;52.342;9.662;2023-01-01T08:14:57;18.00;45.10
11647;DHT22;5880;52.342;9.662;2023-01-01T08:17:23;18.00;45.10
11647;DHT22;5880;52.342;9.662;2023-01-01T08:19:48;18.00;45.10
11647;DHT22;5880;52.342;9.662;2023-01-01T08:22:15;18.00;45.30
11647;DHT22;5880;52.342;9.662;2023-01-01T08:24:40;18.00;45.00
11647;DHT22;5880;52.342;9.662;2023-01-01T08:27:07;17.90;45.00
11647;DHT22;5880;52.342;9.662;2023-01-01T08:29:34;17.90;45.00
11647;DHT22;5880;52.342;9.662;2023-01-01T08:32:00;17.90;45.10
11647;DHT22;5880;52.342;9.662;2023-01-01T08:34:25;17.90;45.10
11647;DHT22;5880;52.342;9.662;2023-01-01T08:36:51;18.00;45.10
11647;DHT22;5880;52.342;9.662;2023-01-01T08:39:17;17.90;45.20
11647;DHT22;5880;52.342;9.662;2023-01-01T08:41:42;17.90;45.20
11647;DHT22;5880;52.342;9.662;2023-01-01T08:44:08;17.90;45.40
11647;DHT22;5880;52.342;9.662;2023-01-01T08:46:34;17.90;45.40
11647;DHT22;5880;52.342;9.662;2023-01-01T08:48:59;17.90;45.40
11647;DHT22;5880;52.342;9.662;2023-01-01T08:51:25;18.00;45.40
11647;DHT22;5880;52.342;9.662;2023-01-01T08:53:50;17.90;45.50
11647;DHT22;5880;52.342;9.662;2023-01-01T08:56:16;17.80;45.40
11647;DHT22;5880;52.342;9.662;2023-01-01T08:58:42;17.80;45.50
11647;DHT22;5880;52.342;9.662;2023-01-01T09:01:08;17.80;45.40
11647;DHT22;5880;52.342;9.662;2023-01-01T09:03:34;17.80;45.60
11647;DHT22;5880;52.342;9.662;2023-01-01T09:06:00;17.80;45.70
11647;DHT22;5880;52.342;9.662;2023-01-01T09:08:26;17.70;45.70
11647;DHT22;5880;52.342;9.662;2023-01-01T09:10:52;17.80;45.90
11647;DHT22;5880;52.342;9.662;2023-01-01T09:13:22;17.70;46.00
11647;DHT22;5880;52.342;9.662;2023-01-01T09:15:47;17.70;46.10
11647;DHT22;5880;52.342;9.662;2023-01-01T09:18:13;17.70;46.10
11647;DHT22;5880;52.342;9.662;2023-01-01T09:20:39;17.70;46.10
11647;DHT22;5880;52.342;9.662;2023-01-01T09:23:05;17.70;46.30
11647;DHT22;5880;52.342;9.662;2023-01-01T09:25:32;17.70;46.50
11647;DHT22;5880;52.342;9.662;2023-01-01T09:28:01;17.60;46.70
11647;DHT22;5880;52.342;9.662;2023-01-01T09:30:29;17.60;46.90
11647;DHT22;5880;52.342;9.662;2023-01-01T09:32:55;17.60;47.30
11647;DHT22;5880;52.342;9.662;2023-01-01T09:35:20;17.50;47.90
11647;DHT22;5880;52.342;9.662;2023-01-01T09:37:47;17.40;48.00
11647;DHT22;5880;52.342;9.662;2023-01-01T09:44:32;17.30;49.50
11647;DHT22;5880;52.342;9.662;2023-01-01T09:46:51;17.10;49.50
11647;DHT22;5880;52.342;9.662;2023-01-01T09:49:30;17.00;48.90
11647;DHT22;5880;52.342;9.662;2023-01-01T09:52:00;16.90;49.20
11647;DHT22;5880;52.342;9.662;2023-01-01T09:57:15;16.70;50.30
11647;DHT22;5880;52.342;9.662;2023-01-01T09:59:42;16.60;50.00
11647;DHT22;5880;52.342;9.662;2023-01-01T10:02:31;16.60;50.10
11647;DHT22;5880;52.342;9.662;2023-01-01T10:11:30;16.50;52.40
11647;DHT22;5880;52.342;9.662;2023-01-01T10:14:29;16.40;52.60
11647;DHT22;5880;52.342;9.662;2023-01-01T10:17:01;16.30;52.80
11647;DHT22;5880;52.342;9.662;2023-01-01T10:19:40;16.30;52.60
11647;DHT22;5880;52.342;9.662;2023-01-01T10:22:32;16.30;52.80
11647;DHT22;5880;52.342;9.662;2023-01-01T10:25:32;16.20;53.20
11647;DHT22;5880;52.342;9.662;2023-01-01T10:28:03;16.10;54.20
11647;DHT22;5880;52.342;9.662;2023-01-01T10:30:36;16.10;53.60
11647;DHT22;5880;52.342;9.662;2023-01-01T10:33:04;16.00;53.20
11647;DHT22;5880;52.342;9.662;2023-01-01T10:35:42;16.00;53.60
11647;DHT22;5880;52.342;9.662;2023-01-01T10:38:22;16.00;54.50
11647;DHT22;5880;52.342;9.662;2023-01-01T10:40:50;16.00;55.50
11647;DHT22;5880;52.342;9.662;2023-01-01T10:43:18;16.00;55.00
11647;DHT22;5880;52.342;9.662;2023-01-01T10:45:51;15.90;54.60
11647;DHT22;5880;52.342;9.662;2023-01-01T10:48:24;15.90;56.00
11647;DHT22;5880;52.342;9.662;2023-01-01T10:50:56;15.90;55.80
11647;DHT22;5880;52.342;9.662;2023-01-01T10:54:09;15.80;56.60
11647;DHT22;5880;52.342;9.662;2023-01-01T10:56:38;15.80;57.50
11647;DHT22;5880;52.342;9.662;2023-01-01T10:59:36;15.70;58.60
11647;DHT22;5880;52.342;9.662;2023-01-01T11:02:24;15.70;59.20
11647;DHT22;5880;52.342;9.662;2023-01-01T11:05:15;15.60;59.20
11647;DHT22;5880;52.342;9.662;2023-01-01T11:07:43;15.60;59.20
11647;DHT22;5880;52.342;9.662;2023-01-01T11:10:27;15.50;56.90
11647;DHT22;5880;52.342;9.662;2023-01-01T11:12:56;15.50;58.60
11647;DHT22;5880;52.342;9.662;2023-01-01T11:15:40;15.50;56.70
11647;DHT22;5880;52.342;9.662;2023-01-01T11:18:13;15.50;58.00
11647;DHT22;5880;52.342;9.662;2023-01-01T11:20:42;15.50;57.70
11647;DHT22;5880;52.342;9.662;2023-01-01T11:23:38;15.50;57.10
11647;DHT22;5880;52.342;9.662;2023-01-01T11:28:38;15.40;57.40
11647;DHT22;5880;52.342;9.662;2023-01-01T11:31:12;15.40;57.10
11647;DHT22;5880;52.342;9.662;2023-01-01T11:33:50;15.40;58.60
11647;DHT22;5880;52.342;9.662;2023-01-01T11:36:36;15.40;58.60
11647;DHT22;5880;52.342;9.662;2023-01-01T11:39:21;15.40;59.00
11647;DHT22;5880;52.342;9.662;2023-01-01T11:41:53;15.30;59.60
11647;DHT22;5880;52.342;9.662;2023-01-01T11:47:07;15.30;59.00
11647;DHT22;5880;52.342;9.662;2023-01-01T11:50:28;15.30;58.50
11647;DHT22;5880;52.342;9.662;2023-01-01T11:53:17;15.30;59.60
11647;DHT22;5880;52.342;9.662;2023-01-01T11:58:47;15.40;59.40
11647;DHT22;5880;52.342;9.662;2023-01-01T12:01:21;15.40;59.70
11647;DHT22;5880;52.342;9.662;2023-01-01T12:10:02;15.40;59.10
11647;DHT22;5880;52.342;9.662;2023-01-01T12:12:59;15.50;59.20
11647;DHT22;5880;52.342;9.662;2023-01-01T12:15:50;15.40;59.70
11647;DHT22;5880;52.342;9.662;2023-01-01T12:18:28;15.40;60.50
11647;DHT22;5880;52.342;9.662;2023-01-01T12:21:04;15.40;58.90
11647;DHT22;5880;52.342;9.662;2023-01-01T12:23:53;15.40;58.90
11647;DHT22;5880;52.342;9.662;2023-01-01T12:29:34;15.40;59.40
11647;DHT22;5880;52.342;9.662;2023-01-01T12:35:22;15.40;59.60
11647;DHT22;5880;52.342;9.662;2023-01-01T12:38:26;15.40;59.60
11647;DHT22;5880;52.342;9.662;2023-01-01T12:56:34;15.30;60.30
11647;DHT22;5880;52.342;9.662;2023-01-01T12:59:14;15.30;60.60
11647;DHT22;5880;52.342;9.662;2023-01-01T13:01:44;15.30;60.30
11647;DHT22;5880;52.342;9.662;2023-01-01T13:04:18;15.30;59.70
11647;DHT22;5880;52.342;9.662;2023-01-01T13:06:49;15.30;60.40
11647;DHT22;5880;52.342;9.662;2023-01-01T13:09:20;15.30;60.60
11647;DHT22;5880;52.342;9.662;2023-01-01T13:12:00;15.30;60.50
11647;DHT22;5880;52.342;9.662;2023-01-01T13:14:35;15.30;61.60
11647;DHT22;5880;52.342;9.662;2023-01-01T13:17:03;15.40;60.40
11647;DHT22;5880;52.342;9.662;2023-01-01T13:19:33;15.40;60.40
11647;DHT22;5880;52.342;9.662;2023-01-01T13:22:34;15.50;61.20
11647;DHT22;5880;52.342;9.662;2023-01-01T13:33:20;15.60;61.70
11647;DHT22;5880;52.342;9.662;2023-01-01T13:38:49;15.60;61.70
11647;DHT22;5880;52.342;9.662;2023-01-01T13:41:43;15.70;62.30
11647;DHT22;5880;52.342;9.662;2023-01-01T13:44:22;15.60;61.20
11647;DHT22;5880;52.342;9.662;2023-01-01T13:47:10;15.60;61.20
11647;DHT22;5880;52.342;9.662;2023-01-01T13:50:20;15.70;61.40
11647;DHT22;5880;52.342;9.662;2023-01-01T13:53:01;15.70;61.10
11647;DHT22;5880;52.342;9.662;2023-01-01T14:05:12;15.60;61.00
11647;DHT22;5880;52.342;9.662;2023-01-01T14:08:00;15.50;60.90
11647;DHT22;5880;52.342;9.662;2023-01-01T14:10:34;15.50;61.10
11647;DHT22;5880;52.342;9.662;2023-01-01T14:15:37;15.50;60.70
11647;DHT22;5880;52.342;9.662;2023-01-01T14:18:10;15.40;60.10
11647;DHT22;5880;52.342;9.662;2023-01-01T14:20:51;15.40;60.60
11647;DHT22;5880;52.342;9.662;2023-01-01T14:23:29;15.40;60.70
11647;DHT22;5880;52.342;9.662;2023-01-01T14:25:59;15.40;60.50
11647;DHT22;5880;52.342;9.662;2023-01-01T14:28:32;15.40;60.40
11647;DHT22;5880;52.342;9.662;2023-01-01T14:31:02;15.30;60.30
11647;DHT22;5880;52.342;9.662;2023-01-01T14:33:32;15.40;60.40
11647;DHT22;5880;52.342;9.662;2023-01-01T14:36:03;15.40;60.30
11647;DHT22;5880;52.342;9.662;2023-01-01T14:38:34;15.30;60.80
11647;DHT22;5880;52.342;9.662;2023-01-01T14:41:27;15.30;60.60
11647;DHT22;5880;52.342;9.662;2023-01-01T14:43:57;15.30;60.80
11647;DHT22;5880;52.342;9.662;2023-01-01T14:46:45;15.40;60.30
11647;DHT22;5880;52.342;9.662;2023-01-01T14:49:35;15.30;60.70
11647;DHT22;5880;52.342;9.662;2023-01-01T14:52:07;15.30;61.00
11647;DHT22;5880;52.342;9.662;2023-01-01T14:54:47;15.30;60.40
11647;DHT22;5880;52.342;9.662;2023-01-01T14:57:28;15.30;60.00
11647;DHT22;5880;52.342;9.662;2023-01-01T14:59:56;15.30;60.50
11647;DHT22;5880;52.342;9.662;2023-01-01T15:02:26;15.30;60.10
11647;DHT22;5880;52.342;9.662;2023-01-01T15:07:55;15.30;60.60
11647;DHT22;5880;52.342;9.662;2023-01-01T15:10:24;15.30;60.40
11647;DHT22;5880;52.342;9.662;2023-01-01T15:12:56;15.30;60.00
11647;DHT22;5880;52.342;9.662;2023-01-01T15:15:42;15.30;60.00
11647;DHT22;5880;52.342;9.662;2023-01-01T15:18:35;15.40;60.50
11647;DHT22;5880;52.342;9.662;2023-01-01T15:21:05;15.30;60.50
11647;DHT22;5880;52.342;9.662;2023-01-01T15:23:37;15.40;59.90
11647;DHT22;5880;52.342;9.662;2023-01-01T15:26:26;15.40;59.70
11647;DHT22;5880;52.342;9.662;2023-01-01T15:28:56;15.40;60.30
11647;DHT22;5880;52.342;9.662;2023-01-01T15:31:33;15.40;59.60
11647;DHT22;5880;52.342;9.662;2023-01-01T15:34:01;15.40;59.80
11647;DHT22;5880;52.342;9.662;2023-01-01T15:36:27;15.50;59.70
11647;DHT22;5880;52.342;9.662;2023-01-01T15:38:53;15.50;59.60
11647;DHT22;5880;52.342;9.662;2023-01-01T15:41:24;15.60;59.50
11647;DHT22;5880;52.342;9.662;2023-01-01T15:43:50;15.50;59.60
11647;DHT22;5880;52.342;9.662;2023-01-01T15:46:19;15.60;59.50
11647;DHT22;5880;52.342;9.662;2023-01-01T15:48:49;16.00;59.70
11647;DHT22;5880;52.342;9.662;2023-01-01T15:51:17;15.70;59.40
11647;DHT22;5880;52.342;9.662;2023-01-01T15:53:48;15.70;59.30
11647;DHT22;5880;52.342;9.662;2023-01-01T15:56:17;15.80;59.20
11647;DHT22;5880;52.342;9.662;2023-01-01T15:58:55;15.80;59.00
11647;DHT22;5880;52.342;9.662;2023-01-01T16:01:29;15.80;59.70
11647;DHT22;5880;52.342;9.662;2023-01-01T16:04:26;15.80;58.80
11647;DHT22;5880;52.342;9.662;2023-01-01T16:06:53;15.90;58.80
11647;DHT22;5880;52.342;9.662;2023-01-01T16:09:21;15.90;58.70
11647;DHT22;5880;52.342;9.662;2023-01-01T16:11:54;15.90;58.50
11647;DHT22;5880;52.342;9.662;2023-01-01T16:14:22;15.90;58.50
11647;DHT22;5880;52.342;9.662;2023-01-01T16:16:56;15.90;59.10
11647;DHT22;5880;52.342;9.662;2023-01-01T16:19:25;15.80;58.20
11647;DHT22;5880;52.342;9.662;2023-01-01T16:21:51;15.90;58.20
11647;DHT22;5880;52.342;9.662;2023-01-01T16:24:18;15.90;58.10
11647;DHT22;5880;52.342;9.662;2023-01-01T16:26:44;15.80;57.90
11647;DHT22;5880;52.342;9.662;2023-01-01T16:29:11;15.80;57.90
11647;DHT22;5880;52.342;9.662;2023-01-01T16:31:37;15.70;58.00
11647;DHT22;5880;52.342;9.662;2023-01-01T16:34:04;15.70;58.10
11647;DHT22;5880;52.342;9.662;2023-01-01T16:36:30;15.70;58.10
11647;DHT22;5880;52.342;9.662;2023-01-01T16:38:57;15.70;58.10
11647;DHT22;5880;52.342;9.662;2023-01-01T16:41:25;15.70;58.20
11647;DHT22;5880;52.342;9.662;2023-01-01T16:43:53;15.80;58.20
11647;DHT22;5880;52.342;9.662;2023-01-01T16:46:18;15.60;58.20
11647;DHT22;5880;52.342;9.662;2023-01-01T16:48:44;15.60;58.20
11647;DHT22;5880;52.342;9.662;2023-01-01T16:51:18;15.50;58.30
11647;DHT22;5880;52.342;9.662;2023-01-01T16:53:47;15.60;58.50
11647;DHT22;5880;52.342;9.662;2023-01-01T16:56:14;15.60;58.40
11647;DHT22;5880;52.342;9.662;2023-01-01T16:58:40;15.50;58.50
11647;DHT22;5880;52.342;9.662;2023-01-01T17:01:06;15.60;58.50
11647;DHT22;5880;52.342;9.662;2023-01-01T17:03:33;15.50;58.50
11647;DHT22;5880;52.342;9.662;2023-01-01T17:06:03;15.60;58.50
11647;DHT22;5880;52.342;9.662;2023-01-01T17:08:33;15.60;58.60
11647;DHT22;5880;52.342;9.662;2023-01-01T17:11:05;15.60;58.60
11647;DHT22;5880;52.342;9.662;2023-01-01T17:13:33;15.80;58.70
11647;DHT22;5880;52.342;9.662;2023-01-01T17:16:00;15.70;58.60
11647;DHT22;5880;52.342;9.662;2023-01-01T17:18:26;15.60;58.50
11647;DHT22;5880;52.342;9.662;2023-01-01T17:20:52;15.70;58.50
11647;DHT22;5880;52.342;9.662;2023-01-01T17:23:18;15.70;58.50
11647;DHT22;5880;52.342;9.662;2023-01-01T17:25:43;15.70;58.50
11647;DHT22;5880;52.342;9.662;2023-01-01T17:28:09;15.70;58.40
11647;DHT22;5880;52.342;9.662;2023-01-01T17:30:35;15.80;58.40
11647;DHT22;5880;52.342;9.662;2023-01-01T17:33:00;15.70;58.40
11647;DHT22;5880;52.342;9.662;2023-01-01T17:35:26;15.70;58.40
11647;DHT22;5880;52.342;9.662;2023-01-01T17:37:51;15.70;58.40
11647;DHT22;5880;52.342;9.662;2023-01-01T17:40:17;15.80;58.30
11647;DHT22;5880;52.342;9.662;2023-01-01T17:42:43;15.80;58.30
11647;DHT22;5880;52.342;9.662;2023-01-01T17:45:09;15.80;58.30
11647;DHT22;5880;52.342;9.662;2023-01-01T17:47:35;15.80;58.30
11647;DHT22;5880;52.342;9.662;2023-01-01T17:50:00;15.80;58.30
11647;DHT22;5880;52.342;9.662;2023-01-01T17:52:26;15.80;58.20
11647;DHT22;5880;52.342;9.662;2023-01-01T17:54:52;15.80;58.20
11647;DHT22;5880;52.342;9.662;2023-01-01T17:57:18;15.80;58.20
11647;DHT22;5880;52.342;9.662;2023-01-01T17:59:43;15.80;58.20